Meteo Giornale » Osservazioni meteo Gran Bretagna » Newcastle

ore: 21:50 - Osservazioni Meteo Newcastle
Lat. 55° 2' N Lon. 1° 42' W Alt. 81 metri s.l.m.

poco_nuvoloso Europe/London

6 °C

Poco Nuvoloso

Temp. 24 Ore

6 °C

15 °C

Ovest

11.1 Km/h

Dew point 4 °C

Umidità 86 %

Visibilità  10 Km

Il sole sorge alle ore 07:39

Il sole tramonta alle ore 18:04

Data e Ora Cielo e Fenomeni T °C DP °C Um. % Pres. hPa Vis. km Vento km/h
Oggi h: 21:50 poco_nuvoloso Poco Nuvoloso 6 4 86 1025 10 O 11.1
Oggi h: 21:20 poco_nuvoloso Poco Nuvoloso 7 5 87 1024 10 O/SO 7.4
Oggi h: 20:50 poco_nuvoloso Poco Nuvoloso 8 6 87 1024 10 O/SO 7.4
Oggi h: 20:20 poco_nuvoloso Poco Nuvoloso 7 5 87 1024 10 O 9.3
Oggi h: 19:50 nuvoloso Nuvoloso 9 7 87 1023 10 O 11.1
Oggi h: 19:20 nuvoloso Nuvoloso 8 6 87 1023 10 O/SO 9.3
Oggi h: 18:50 poco_nuvoloso Poco Nuvoloso 9 7 87 1022 10 N 5.5
Oggi h: 18:20 poco_nuvoloso Poco Nuvoloso 9 6 81 1021 10 O 9.3
Oggi h: 16:50 poco_nuvoloso Poco Nuvoloso 12 7 71 1020 10 O 13
Oggi h: 16:20 poco_nuvoloso Poco Nuvoloso 13 8 71 1020 10 O 22.2
Oggi h: 15:50 poco_nuvoloso Poco Nuvoloso 14 8 67 1019 10 O 20.3
Oggi h: 14:50 nuvoloso Nuvoloso 15 8 62 1019 10 O 13
Oggi h: 14:20 nuvoloso Nuvoloso 14 8 67 1019 10 O 20.3
Oggi h: 13:50 nuvoloso Nuvoloso 14 8 67 1018 10 O 22.2
Oggi h: 12:20 poco_nuvoloso Poco Nuvoloso 14 8 67 1018 10 O/SO 20.3
Oggi h: 11:50 nuvoloso Nuvoloso 13 9 76 1018 10 O/SO 16.7
Oggi h: 11:20 poco_nuvoloso Poco Nuvoloso 13 9 76 1017 10 O 16.7
Oggi h: 10:50 poco_nuvoloso Poco Nuvoloso 13 9 76 1017 10 O 14.8
Oggi h: 10:20 nuvoloso Nuvoloso 13 9 76 1017 10 N 3.7
Oggi h: 09:50 nuvoloso Nuvoloso 12 8 76 1016 10 N 5.5
Oggi h: 08:50 nuvoloso Nuvoloso 10 8 87 1015 10 N 5.5
Oggi h: 08:20 molto_nuvoloso Molto Nuvoloso 10 8 87 1015 10 S 9.3
Oggi h: 07:50 molto_nuvoloso Molto Nuvoloso 10 7 81 1014 10 N 3.7
Oggi h: 07:20 nuvoloso Nuvoloso 10 7 81 1014 10 S/SO 7.4
Oggi h: 06:50 poco_nuvoloso Poco Nuvoloso 10 7 81 1013 10 S/SO 11.1
Oggi h: 06:20 poco_nuvoloso Poco Nuvoloso 11 7 76 1013 10 SO 11.1
Oggi h: 05:50 poco_nuvoloso Poco Nuvoloso 10 7 81 1013 10 SO 11.1
Oggi h: 05:20 poco_nuvoloso Poco Nuvoloso 9 8 93 1013 10 S/SO 9.3
Oggi h: 04:50 poco_nuvoloso Poco Nuvoloso 9 7 87 1013 10 N 5.5
Oggi h: 04:20 poco_nuvoloso Poco Nuvoloso 10 8 87 1012 10 N 3.7
Oggi h: 03:20 poco_nuvoloso Poco Nuvoloso 9 8 93 1012 10 N 5.5
Oggi h: 02:50 poco_nuvoloso Poco Nuvoloso 10 9 93 1012 10 N 3.7
Oggi h: 02:20 poco_nuvoloso Poco Nuvoloso 11 10 93 1012 10 N 3.7
Oggi h: 01:20 nuvoloso Nuvoloso 13 10 81 1012 10 S/SO 13
Oggi h: 00:50 coperto_pioggia Pioggia Debole 13 10 81 1011 10 S/SO 9.3
Oggi h: 00:20 nuvoloso Nuvoloso 13 10 81 1011 10 S/SO 13
Ieri h: 23:50 nuvoloso Nuvoloso 13 10 81 1011 10 S/SO 14.8
Ieri h: 23:20 poco_nuvoloso Poco Nuvoloso 13 10 81 1011 10 S/SO 13
Ieri h: 22:50 poco_nuvoloso Poco Nuvoloso 12 9 81 1011 10 S/SO 13